createdAt,value
2023-10-11T00:08:27.578Z,13.75
2023-10-11T00:23:33.461Z,13.58
2023-10-11T00:38:49.478Z,13.60
2023-10-11T00:53:58.064Z,13.50
2023-10-11T01:09:10.435Z,13.44
2023-10-11T01:24:18.102Z,13.34
2023-10-11T01:39:23.724Z,13.18
2023-10-11T01:54:29.283Z,13.08
2023-10-11T02:09:35.306Z,12.99
2023-10-11T02:24:40.654Z,12.94
2023-10-11T02:39:47.117Z,12.99
2023-10-11T02:54:56.282Z,13.06
2023-10-11T03:10:01.897Z,12.97
2023-10-11T03:25:14.409Z,13.10
2023-10-11T03:40:36.710Z,12.94
2023-10-11T03:55:47.426Z,12.93
2023-10-11T04:10:53.006Z,12.82
2023-10-11T04:26:00.165Z,12.74
2023-10-11T04:41:17.535Z,12.64
2023-10-11T04:56:40.782Z,12.59
2023-10-11T05:11:51.913Z,12.51
2023-10-11T05:27:13.413Z,12.50
2023-10-11T05:42:36.987Z,12.50
2023-10-11T05:57:44.243Z,12.49
2023-10-11T06:12:49.705Z,12.61
2023-10-11T06:28:15.187Z,12.84
2023-10-11T06:43:21.526Z,13.19
2023-10-11T06:58:27.307Z,13.69
2023-10-11T07:13:51.485Z,14.82
2023-10-11T07:28:57.663Z,16.19
2023-10-11T07:44:03.975Z,16.65
2023-10-11T07:59:10.352Z,18.07
2023-10-11T08:14:16.743Z,19.56
2023-10-11T08:29:30.694Z,20.10
2023-10-11T08:44:36.190Z,20.74
2023-10-11T08:59:51.752Z,21.92
2023-10-11T09:15:02.087Z,22.28
2023-10-11T09:30:24.539Z,23.32
2023-10-11T09:45:43.796Z,23.60
2023-10-11T10:01:08.405Z,24.46
2023-10-11T10:16:15.673Z,25.10
2023-10-11T10:31:25.344Z,25.60
2023-10-11T10:46:31.340Z,26.04
2023-10-11T11:01:36.813Z,26.60
2023-10-11T11:16:45.746Z,26.08
2023-10-11T11:31:55.598Z,26.72
2023-10-11T11:47:06.416Z,27.26
2023-10-11T12:02:19.021Z,27.35
2023-10-11T12:17:27.469Z,27.42
2023-10-11T12:32:34.922Z,27.41
2023-10-11T12:47:41.098Z,27.66
2023-10-11T13:02:49.893Z,27.99
2023-10-11T13:17:56.365Z,28.28
2023-10-11T13:33:02.119Z,28.41
2023-10-11T13:48:13.178Z,28.79
2023-10-11T14:03:32.913Z,28.50
2023-10-11T14:18:40.315Z,28.32
2023-10-11T14:33:46.760Z,28.17
2023-10-11T14:48:54.143Z,28.02
2023-10-11T15:04:02.208Z,28.01
2023-10-11T15:19:11.164Z,27.57
2023-10-11T15:34:20.506Z,27.23
2023-10-11T15:49:26.658Z,28.99
2023-10-11T16:04:33.410Z,29.56
2023-10-11T16:19:39.689Z,28.61
2023-10-11T16:34:45.479Z,24.47
2023-10-11T16:49:52.969Z,23.61
2023-10-11T17:04:58.702Z,22.27
2023-10-11T17:20:06.078Z,21.69
2023-10-11T17:35:14.804Z,20.89
2023-10-11T17:50:24.018Z,20.28
2023-10-11T18:05:30.114Z,19.68
2023-10-11T18:20:38.434Z,19.14
2023-10-11T18:35:45.336Z,18.44
2023-10-11T18:50:50.736Z,17.62
2023-10-11T19:05:56.431Z,17.45
2023-10-11T19:21:07.121Z,16.95
2023-10-11T19:36:13.153Z,16.66
2023-10-11T19:51:19.417Z,16.85
2023-10-11T20:06:25.882Z,16.61
2023-10-11T20:21:31.750Z,16.20
2023-10-11T20:36:37.507Z,16.29
2023-10-11T20:51:43.814Z,16.33
2023-10-11T21:06:51.574Z,16.02
2023-10-11T21:21:58.211Z,16.01
2023-10-11T21:37:03.515Z,16.18
2023-10-11T21:52:09.473Z,15.92
2023-10-11T22:07:18.919Z,15.77
2023-10-11T22:22:25.077Z,15.82
2023-10-11T22:37:36.517Z,15.54
2023-10-11T22:52:42.663Z,15.31
2023-10-11T23:07:49.386Z,14.96
2023-10-11T23:22:55.279Z,14.69
2023-10-11T23:38:15.585Z,14.98
2023-10-11T23:53:21.816Z,14.78
